Gordon A Keenan — WDG6853 — position and weather

sailwx.info

Track history (hours):
 
Tides and Currents Weather Stations Pressure Air Temp Water Temp Dewpoint Dewpoint Depression Visibility Wind Speed Wind Dir Waves Ship Positions

Gordon A Keenan

Owner: Higman Barge Lines, Inc., Orange, TX. More information available from US FCC via Universal Licensing System and Coast Guard Vessel Documentation Center.

Last reported at 2018-Jun-20 13:44 UTC. Time now 2018-Jun-25 17:46 UTC.
Position N 29°50' W 091°58'.

Length 207 m; draft 2.7 m.

Type: . MMSI: 367561370.

Date/timePositionNaut miles runAvg speedWind from/ knotsBaromVisibWave heightAir tempDewpointWater temp
2018-Jun-20 13:44N 29°50' W 091°58'1 5.6
2018-Jun-20 13:31N 29°50' W 091°59'3 5.7
2018-Jun-20 13:00N 29°49' W 092°02'3 5.2
2018-Jun-20 12:31N 29°48' W 092°05'2 4.7
2018-Jun-20 12:01N 29°47' W 092°08'2 4.5
2018-Jun-20 11:29N 29°47' W 092°10'2 4.1
2018-Jun-20 11:01N 29°47' W 092°12'1 2.0
2018-Jun-20 10:31N 29°48' W 092°14'1 1.4
2018-Jun-20 10:00N 29°48' W 092°14'0 0.0
2018-Jun-20 09:30N 29°48' W 092°14'0 0.4
2018-Jun-20 09:01N 29°48' W 092°15'0 0.1
2018-Jun-20 08:31N 29°48' W 092°15'0 0.3
2018-Jun-20 08:01N 29°48' W 092°15'1 1.0
2018-Jun-20 07:31N 29°48' W 092°15'0 0.9
2018-Jun-20 07:00N 29°48' W 092°16'0 0.1
2018-Jun-20 06:29N 29°48' W 092°16'0 0.8
2018-Jun-20 06:00N 29°49' W 092°16'0 0.2
2018-Jun-20 05:31N 29°49' W 092°16'0 0.0
2018-Jun-20 05:00N 29°49' W 092°16'0 0.1
2018-Jun-20 04:30N 29°49' W 092°16'0 0.2
2018-Jun-20 04:01N 29°49' W 092°16'0 0.2
2018-Jun-20 03:31N 29°49' W 092°16'0 0.9
2018-Jun-20 03:00N 29°49' W 092°17'0 0.0
2018-Jun-20 02:31N 29°49' W 092°17'0 0.0
2018-Jun-20 02:00N 29°49' W 092°17'0 0.0
2018-Jun-20 01:31N 29°49' W 092°17'0 0.1
2018-Jun-20 01:01N 29°49' W 092°17'1 1.4
2018-Jun-20 00:30N 29°49' W 092°18'0 0.1
2018-Jun-20 00:00N 29°49' W 092°18'0 0.2
2018-Jun-19 23:30N 29°50' W 092°18'1 3.0
2018-Jun-19 23:00N 29°50' W 092°19'2 4.7
2018-Jun-19 22:30N 29°51' W 092°22'40 4.7
2018-Jun-19 14:03N 29°56' W 093°07'1 4.9
2018-Jun-19 13:55N 29°56' W 093°08'2 4.5
2018-Jun-19 13:30N 29°56' W 093°10'2 4.4
2018-Jun-19 13:00N 29°58' W 093°11'2 4.8
2018-Jun-19 12:30N 29°60' W 093°13'2 3.7
2018-Jun-19 12:00N 30°01' W 093°14'2 4.0
2018-Jun-19 11:31N 30°03' W 093°16'2 3.3
2018-Jun-19 11:00N 30°04' W 093°16'1 2.9
2018-Jun-19 10:30N 30°05' W 093°18'1 1.4
2018-Jun-19 10:00N 30°06' W 093°18'1 1.1
2018-Jun-19 09:30N 30°06' W 093°19'0 0.2
2018-Jun-19 09:01N 30°06' W 093°19'0 0.1
2018-Jun-19 08:31N 30°06' W 093°19'0 0.0
2018-Jun-19 08:00N 30°06' W 093°19'0 0.1
2018-Jun-19 07:31N 30°06' W 093°19'0 0.0
2018-Jun-19 07:01N 30°06' W 093°19'0 0.0
2018-Jun-19 06:30N 30°06' W 093°19'0 0.0
2018-Jun-19 05:54N 30°06' W 093°19'0 0.1
2018-Jun-19 05:29N 30°06' W 093°19'0 0.0
2018-Jun-19 05:00N 30°06' W 093°19'0 0.0
2018-Jun-19 04:31N 30°06' W 093°19'0 0.0
2018-Jun-19 04:01N 30°06' W 093°19'0 0.0
2018-Jun-19 03:30N 30°06' W 093°19'0 0.0
2018-Jun-19 03:01N 30°06' W 093°19'0 0.0
2018-Jun-19 02:27N 30°06' W 093°19'0 0.0
2018-Jun-19 02:01N 30°06' W 093°19'0 0.0
2018-Jun-19 01:31N 30°06' W 093°19'0 0.0
2018-Jun-19 01:01N 30°06' W 093°19'0 0.0
2018-Jun-19 00:31N 30°06' W 093°19'0 0.2
2018-Jun-19 00:00N 30°06' W 093°19'0 0.0
2018-Jun-18 23:31N 30°06' W 093°19'0 0.1
2018-Jun-18 23:01N 30°06' W 093°19'0 0.0
2018-Jun-18 22:31N 30°06' W 093°19'0 0.0
2018-Jun-18 22:00N 30°06' W 093°19'0 0.0
2018-Jun-18 21:31N 30°06' W 093°19'0 0.0
2018-Jun-18 20:59N 30°06' W 093°19'0 0.0
2018-Jun-18 20:31N 30°06' W 093°19'0 0.0
2018-Jun-18 20:01N 30°06' W 093°19'0 0.0
2018-Jun-18 19:31N 30°06' W 093°19'0 0.0
2018-Jun-18 19:01N 30°06' W 093°19'0 0.0
2018-Jun-18 18:31N 30°06' W 093°19'0 0.0
2018-Jun-18 18:01N 30°06' W 093°19'0 0.0
2018-Jun-18 17:31N 30°06' W 093°19'0 0.0
2018-Jun-18 17:01N 30°06' W 093°19'0 0.0
2018-Jun-18 16:31N 30°06' W 093°19'0 0.7
2018-Jun-18 16:01N 30°06' W 093°19'1 2.5
2018-Jun-18 15:30N 30°07' W 093°20'2 4.1
2018-Jun-18 15:01N 30°09' W 093°20'2 3.4
2018-Jun-18 14:30N 30°10' W 093°19'1 1.6
2018-Jun-18 14:00N 30°11' W 093°19'0 0.1
2018-Jun-18 13:29N 30°11' W 093°19'0 0.1
2018-Jun-18 13:00N 30°11' W 093°19'0 0.0
2018-Jun-18 12:30N 30°11' W 093°19'0 0.0
2018-Jun-18 12:01N 30°11' W 093°19'0 0.0
2018-Jun-18 11:30N 30°11' W 093°19'0 0.0
2018-Jun-18 11:01N 30°11' W 093°19'0 0.0
2018-Jun-18 10:30N 30°11' W 093°19'0 0.0
2018-Jun-18 10:00N 30°11' W 093°19'0 0.0
2018-Jun-18 09:30N 30°11' W 093°19'0 0.0
2018-Jun-18 09:01N 30°11' W 093°19'0 0.0
2018-Jun-18 08:28N 30°11' W 093°19'0 0.0
2018-Jun-18 08:00N 30°11' W 093°19'0 0.0
2018-Jun-18 07:30N 30°11' W 093°19'0 0.0
2018-Jun-18 07:00N 30°11' W 093°19'0 0.0
2018-Jun-18 06:31N 30°11' W 093°19'0 0.0
2018-Jun-18 06:01N 30°11' W 093°19'0 0.0
2018-Jun-18 05:30N 30°11' W 093°19'0 0.0
2018-Jun-18 05:00N 30°11' W 093°19'0 0.0
2018-Jun-18 04:26N 30°11' W 093°19'0 0.0
2018-Jun-18 03:57N 30°11' W 093°19'0 0.0
2018-Jun-18 03:29N 30°11' W 093°19'0 0.0
2018-Jun-18 03:00N 30°11' W 093°19'0 0.0
2018-Jun-18 02:30N 30°11' W 093°19'0 0.0
2018-Jun-18 01:56N 30°11' W 093°19'0 0.0
2018-Jun-18 01:30N 30°11' W 093°19'0 0.0
2018-Jun-18 01:00N 30°11' W 093°19'0 0.0
2018-Jun-18 00:27N 30°11' W 093°19'0 0.0
2018-Jun-18 00:00N 30°11' W 093°19'0 0.0
2018-Jun-17 23:30N 30°11' W 093°19'0 0.0
2018-Jun-17 23:00N 30°11' W 093°19'0 0.0
2018-Jun-17 22:29N 30°11' W 093°19'0 0.0
2018-Jun-17 21:56N 30°11' W 093°19'0 0.0
2018-Jun-17 21:30N 30°11' W 093°19'0 0.0
2018-Jun-17 21:00N 30°11' W 093°19'0 0.0
2018-Jun-17 20:30N 30°11' W 093°19'0 0.0
2018-Jun-17 19:59N 30°11' W 093°19'0 0.0
2018-Jun-17 19:30N 30°11' W 093°19'0 0.0
2018-Jun-17 18:59N 30°11' W 093°19'0 0.0
2018-Jun-17 18:29N 30°11' W 093°19'0 0.0
2018-Jun-17 17:59N 30°11' W 093°19'0 0.0
2018-Jun-17 17:29N 30°11' W 093°19'0 0.0
2018-Jun-17 16:59N 30°11' W 093°19'0 0.0
2018-Jun-17 16:29N 30°11' W 093°19'0 0.0
2018-Jun-17 16:00N 30°11' W 093°19'0 0.7
2018-Jun-17 15:30N 30°11' W 093°19'2 3.3
2018-Jun-17 15:00N 30°09' W 093°20'2 4.2
2018-Jun-17 14:31N 30°07' W 093°20'2 4.0
2018-Jun-17 14:00N 30°05' W 093°20'0 0.0
2018-Jun-17 13:29N 30°05' W 093°20'0 0.0
2018-Jun-17 12:59N 30°05' W 093°20'0 0.0
2018-Jun-17 12:29N 30°05' W 093°20'0 0.0
2018-Jun-17 11:59N 30°05' W 093°20'0 0.0
2018-Jun-17 11:29N 30°05' W 093°20'0 0.0
2018-Jun-17 10:59N 30°05' W 093°20'0 0.0
2018-Jun-17 10:29N 30°05' W 093°20'0 0.0
2018-Jun-17 09:59N 30°05' W 093°20'0 0.0
2018-Jun-17 09:29N 30°05' W 093°20'0 0.0
2018-Jun-17 08:59N 30°05' W 093°20'0 0.0
2018-Jun-17 08:29N 30°05' W 093°20'0 0.0
2018-Jun-17 07:59N 30°05' W 093°20'0 0.0
2018-Jun-17 07:29N 30°05' W 093°20'0 0.3
2018-Jun-17 07:00N 30°05' W 093°20'1 2.1
2018-Jun-17 06:28N 30°06' W 093°19'1 1.5
2018-Jun-17 06:01N 30°06' W 093°19'1 1.3
2018-Jun-17 05:30N 30°05' W 093°20'0 0.3
2018-Jun-17 04:59N 30°05' W 093°20'0 0.0
2018-Jun-17 04:29N 30°05' W 093°20'0 0.0
2018-Jun-17 03:59N 30°05' W 093°20'0 0.0
2018-Jun-17 03:29N 30°05' W 093°20'0 0.0
2018-Jun-17 02:59N 30°05' W 093°20'0 0.0
2018-Jun-17 02:29N 30°05' W 093°20'0 0.0
2018-Jun-17 01:59N 30°05' W 093°20'0 0.0
2018-Jun-17 01:29N 30°05' W 093°20'0 0.0
2018-Jun-17 00:59N 30°05' W 093°20'0 0.7
2018-Jun-17 00:30N 30°05' W 093°20'0 0.0
2018-Jun-17 00:00N 30°05' W 093°20'0 0.7
2018-Jun-16 23:29N 30°05' W 093°20'0 0.0
2018-Jun-16 22:59N 30°05' W 093°20'0 0.0
2018-Jun-16 22:29N 30°05' W 093°20'0 0.0
2018-Jun-16 21:59N 30°05' W 093°20'0 0.0
2018-Jun-16 21:29N 30°05' W 093°20'0 0.0
2018-Jun-16 20:59N 30°05' W 093°20'0 0.0
2018-Jun-16 20:29N 30°05' W 093°20'0 0.0
2018-Jun-16 19:59N 30°05' W 093°20'0 0.0
2018-Jun-16 19:29N 30°05' W 093°20'0 0.3
2018-Jun-16 19:00N 30°05' W 093°20'0 0.6
2018-Jun-16 18:30N 30°05' W 093°20'0 0.0
2018-Jun-16 18:00N 30°05' W 093°20'0 0.5
2018-Jun-16 17:30N 30°05' W 093°20'0 0.4
2018-Jun-16 16:59N 30°05' W 093°20'0 0.0
2018-Jun-16 16:30N 30°05' W 093°20'0 0.0
2018-Jun-16 15:54N 30°05' W 093°20'0 0.0
2018-Jun-16 15:29N 30°05' W 093°20'0 0.0
2018-Jun-16 15:00N 30°05' W 093°20'0 0.0
2018-Jun-16 14:30N 30°05' W 093°20'0 0.0
2018-Jun-16 14:00N 30°05' W 093°20'0 0.0
2018-Jun-16 13:30N 30°05' W 093°20'1 1.1
2018-Jun-16 13:00N 30°06' W 093°19'1 1.8
2018-Jun-16 12:30N 30°06' W 093°18'0 0.0
2018-Jun-16 12:00N 30°06' W 093°18'1 1.6
2018-Jun-16 11:30N 30°05' W 093°18'1 1.8
2018-Jun-16 11:00N 30°05' W 093°17'2 3.7
2018-Jun-16 10:30N 30°03' W 093°16'2 3.7
2018-Jun-16 10:00N 30°02' W 093°14'0 0.0
2018-Jun-16 09:30N 30°02' W 093°14'0 0.0
2018-Jun-16 09:00N 30°02' W 093°14'0 0.0
2018-Jun-16 08:30N 30°02' W 093°14'0 0.0
2018-Jun-16 08:00N 30°02' W 093°14'0 0.0
2018-Jun-16 07:29N 30°02' W 093°14'0 0.0
2018-Jun-16 06:59N 30°02' W 093°14'0 0.0
2018-Jun-16 06:29N 30°02' W 093°14'0 0.0
2018-Jun-16 06:00N 30°02' W 093°14'0 0.0
2018-Jun-16 05:30N 30°02' W 093°14'0 0.0
2018-Jun-16 05:00N 30°02' W 093°14'0 0.0
2018-Jun-16 04:30N 30°02' W 093°14'0 0.8
2018-Jun-16 04:00N 30°02' W 093°14'0 0.0
2018-Jun-16 03:30N 30°01' W 093°14'0 0.0
2018-Jun-16 03:00N 30°01' W 093°14'0 0.0
2018-Jun-16 02:30N 30°02' W 093°14'0 0.1
2018-Jun-16 02:00N 30°01' W 093°14'1 2.1
2018-Jun-16 01:30N 30°00' W 093°14'2 4.8
2018-Jun-16 01:00N 29°59' W 093°12'3 5.2
2018-Jun-16 00:30N 29°57' W 093°10'3 5.1
2018-Jun-16 00:00N 29°56' W 093°07'2 4.9
2018-Jun-15 23:30N 29°56' W 093°04'2 1.6
2018-Jun-15 22:25N 29°56' W 093°02'0 0.0
2018-Jun-15 21:58N 29°56' W 093°02'0 0.0
2018-Jun-15 21:30N 29°56' W 093°02'0 0.0
2018-Jun-15 20:58N 29°56' W 093°02'0 0.0
2018-Jun-15 20:29N 29°56' W 093°02'0 0.0
2018-Jun-15 19:44N 29°56' W 093°02'0 0.0
2018-Jun-15 19:30N 29°56' W 093°02'0 0.0
2018-Jun-15 18:59N 29°56' W 093°02'0 0.0
2018-Jun-15 17:10N 29°56' W 093°02'0 0.0
2018-Jun-15 15:43N 29°56' W 093°02'0 0.0
2018-Jun-15 15:20N 29°56' W 093°02'0 0.0
2018-Jun-15 14:52N 29°56' W 093°02'0 0.0
2018-Jun-15 14:21N 29°56' W 093°02'0 0.0
2018-Jun-15 13:36N 29°56' W 093°02'0 0.0
2018-Jun-15 13:27N 29°56' W 093°02'0 0.0
2018-Jun-15 13:00N 29°56' W 093°02'0 0.0
2018-Jun-15 12:30N 29°56' W 093°02'0 0.0
2018-Jun-15 11:19N 29°56' W 093°02'0 0.0
2018-Jun-15 09:23N 29°56' W 093°02'0 0.0
2018-Jun-15 08:54N 29°56' W 093°02'0 0.0
2018-Jun-15 08:29N 29°56' W 093°02'0 0.0
2018-Jun-15 08:00N 29°56' W 093°02'0 0.0
2018-Jun-15 07:29N 29°56' W 093°02'0 0.1
2018-Jun-15 07:00N 29°56' W 093°02'0 0.0
2018-Jun-15 06:30N 29°56' W 093°02'0 0.0
2018-Jun-15 06:00N 29°56' W 093°02'0 0.0
2018-Jun-15 05:30N 29°56' W 093°02'0 0.1
2018-Jun-15 05:00N 29°56' W 093°02'0 0.0
2018-Jun-15 04:30N 29°56' W 093°02'0 0.0
2018-Jun-15 04:00N 29°56' W 093°02'0 0.0
2018-Jun-15 03:30N 29°56' W 093°02'0 0.0
2018-Jun-15 03:00N 29°56' W 093°02'0 0.0
2018-Jun-15 02:30N 29°56' W 093°02'0 0.0
2018-Jun-15 02:00N 29°56' W 093°02'0 0.0
2018-Jun-15 01:30N 29°56' W 093°02'0 0.0
2018-Jun-15 01:00N 29°56' W 093°02'0 0.0
2018-Jun-15 00:29N 29°56' W 093°02'0 0.0
2018-Jun-14 23:25N 29°56' W 093°02'0 0.0
2018-Jun-14 22:57N 29°56' W 093°02'32 4.5
2018-Jun-14 15:51N 29°53' W 092°26'3 5.4
2018-Jun-14 15:20N 29°52' W 092°23'2 5.3
2018-Jun-14 15:00N 29°51' W 092°21'3 5.6
2018-Jun-14 14:30N 29°50' W 092°18'3 5.4
2018-Jun-14 14:00N 29°49' W 092°16'3 5.8
2018-Jun-14 13:29N 29°47' W 092°13'1 2.4
2018-Jun-14 13:00N 29°47' W 092°11'3 5.8
2018-Jun-14 12:30N 29°47' W 092°08'3 6.2
2018-Jun-14 12:00N 29°48' W 092°05'3 6.4
2018-Jun-14 11:30N 29°49' W 092°01'3 6.5
2018-Jun-14 11:00N 29°50' W 091°58'3 6.4
2018-Jun-14 10:30N 29°51' W 091°54'  
2018-Jun-11 13:48N 31°51' W 091°18'5 8.5
2018-Jun-11 13:11N 31°54' W 091°12'6 7.4
2018-Jun-11 12:20N 31°59' W 091°08'3 8.5
2018-Jun-11 12:00N 32°00' W 091°05'5 8.0
2018-Jun-11 11:26N 32°05' W 091°04'3 7.6
2018-Jun-11 11:00N 32°08' W 091°06'4 7.9
2018-Jun-11 10:30N 32°07' W 091°02'4 8.4
2018-Jun-11 10:00N 32°11' W 090°60'4 8.9
2018-Jun-11 09:30N 32°15' W 090°58'4 8.9
2018-Jun-11 09:00N 32°18' W 090°55'3 5.9
2018-Jun-11 08:30N 32°21' W 090°57'3 6.7
2018-Jun-11 08:00N 32°23' W 091°00'4 7.1
2018-Jun-11 07:30N 32°26' W 091°02'4 8.9
2018-Jun-11 07:01N 32°28' W 091°06'4 8.4
2018-Jun-11 06:30N 32°32' W 091°06'4 8.4
2018-Jun-11 05:59N 32°36' W 091°09'  
Track history (hours):
 
Tides and Currents Weather Stations Pressure Air Temp Water Temp Dewpoint Dewpoint Depression Visibility Wind Speed Wind Dir Waves Ship Positions

Gordon A Keenan

Owner: Higman Barge Lines, Inc., Orange, TX. More information available from US FCC via Universal Licensing System and Coast Guard Vessel Documentation Center.

Last reported at 2018-Jun-20 13:44 UTC. Time now 2018-Jun-25 17:46 UTC.
Position N 29°50' W 091°58'.

Length 207 m; draft 2.7 m.

Type: . MMSI: 367561370.

Date/timePositionNaut miles runAvg speedWind from/ knotsBaromVisibWave heightAir tempDewpointWater temp
2018-Jun-20 13:44N 29°50' W 091°58'1 5.6
2018-Jun-20 13:31N 29°50' W 091°59'3 5.7
2018-Jun-20 13:00N 29°49' W 092°02'3 5.2
2018-Jun-20 12:31N 29°48' W 092°05'2 4.7
2018-Jun-20 12:01N 29°47' W 092°08'2 4.5
2018-Jun-20 11:29N 29°47' W 092°10'2 4.1
2018-Jun-20 11:01N 29°47' W 092°12'1 2.0
2018-Jun-20 10:31N 29°48' W 092°14'1 1.4
2018-Jun-20 10:00N 29°48' W 092°14'0 0.0
2018-Jun-20 09:30N 29°48' W 092°14'0 0.4
2018-Jun-20 09:01N 29°48' W 092°15'0 0.1
2018-Jun-20 08:31N 29°48' W 092°15'0 0.3
2018-Jun-20 08:01N 29°48' W 092°15'1 1.0
2018-Jun-20 07:31N 29°48' W 092°15'0 0.9
2018-Jun-20 07:00N 29°48' W 092°16'0 0.1
2018-Jun-20 06:29N 29°48' W 092°16'0 0.8
2018-Jun-20 06:00N 29°49' W 092°16'0 0.2
2018-Jun-20 05:31N 29°49' W 092°16'0 0.0
2018-Jun-20 05:00N 29°49' W 092°16'0 0.1
2018-Jun-20 04:30N 29°49' W 092°16'0 0.2
2018-Jun-20 04:01N 29°49' W 092°16'0 0.2
2018-Jun-20 03:31N 29°49' W 092°16'0 0.9
2018-Jun-20 03:00N 29°49' W 092°17'0 0.0
2018-Jun-20 02:31N 29°49' W 092°17'0 0.0
2018-Jun-20 02:00N 29°49' W 092°17'0 0.0
2018-Jun-20 01:31N 29°49' W 092°17'0 0.1
2018-Jun-20 01:01N 29°49' W 092°17'1 1.4
2018-Jun-20 00:30N 29°49' W 092°18'0 0.1
2018-Jun-20 00:00N 29°49' W 092°18'0 0.2
2018-Jun-19 23:30N 29°50' W 092°18'1 3.0
2018-Jun-19 23:00N 29°50' W 092°19'2 4.7
2018-Jun-19 22:30N 29°51' W 092°22'40 4.7
2018-Jun-19 14:03N 29°56' W 093°07'1 4.9
2018-Jun-19 13:55N 29°56' W 093°08'2 4.5
2018-Jun-19 13:30N 29°56' W 093°10'2 4.4
2018-Jun-19 13:00N 29°58' W 093°11'2 4.8
2018-Jun-19 12:30N 29°60' W 093°13'2 3.7
2018-Jun-19 12:00N 30°01' W 093°14'2 4.0
2018-Jun-19 11:31N 30°03' W 093°16'2 3.3
2018-Jun-19 11:00N 30°04' W 093°16'1 2.9
2018-Jun-19 10:30N 30°05' W 093°18'1 1.4
2018-Jun-19 10:00N 30°06' W 093°18'1 1.1
2018-Jun-19 09:30N 30°06' W 093°19'0 0.2
2018-Jun-19 09:01N 30°06' W 093°19'0 0.1
2018-Jun-19 08:31N 30°06' W 093°19'0 0.0
2018-Jun-19 08:00N 30°06' W 093°19'0 0.1
2018-Jun-19 07:31N 30°06' W 093°19'0 0.0
2018-Jun-19 07:01N 30°06' W 093°19'0 0.0
2018-Jun-19 06:30N 30°06' W 093°19'0 0.0
2018-Jun-19 05:54N 30°06' W 093°19'0 0.1
2018-Jun-19 05:29N 30°06' W 093°19'0 0.0
2018-Jun-19 05:00N 30°06' W 093°19'0 0.0
2018-Jun-19 04:31N 30°06' W 093°19'0 0.0
2018-Jun-19 04:01N 30°06' W 093°19'0 0.0
2018-Jun-19 03:30N 30°06' W 093°19'0 0.0
2018-Jun-19 03:01N 30°06' W 093°19'0 0.0
2018-Jun-19 02:27N 30°06' W 093°19'0 0.0
2018-Jun-19 02:01N 30°06' W 093°19'0 0.0
2018-Jun-19 01:31N 30°06' W 093°19'0 0.0
2018-Jun-19 01:01N 30°06' W 093°19'0 0.0
2018-Jun-19 00:31N 30°06' W 093°19'0 0.2
2018-Jun-19 00:00N 30°06' W 093°19'0 0.0
2018-Jun-18 23:31N 30°06' W 093°19'0 0.1
2018-Jun-18 23:01N 30°06' W 093°19'0 0.0
2018-Jun-18 22:31N 30°06' W 093°19'0 0.0
2018-Jun-18 22:00N 30°06' W 093°19'0 0.0
2018-Jun-18 21:31N 30°06' W 093°19'0 0.0
2018-Jun-18 20:59N 30°06' W 093°19'0 0.0
2018-Jun-18 20:31N 30°06' W 093°19'0 0.0
2018-Jun-18 20:01N 30°06' W 093°19'0 0.0
2018-Jun-18 19:31N 30°06' W 093°19'0 0.0
2018-Jun-18 19:01N 30°06' W 093°19'0 0.0
2018-Jun-18 18:31N 30°06' W 093°19'0 0.0
2018-Jun-18 18:01N 30°06' W 093°19'0 0.0
2018-Jun-18 17:31N 30°06' W 093°19'0 0.0
2018-Jun-18 17:01N 30°06' W 093°19'0 0.0
2018-Jun-18 16:31N 30°06' W 093°19'0 0.7
2018-Jun-18 16:01N 30°06' W 093°19'1 2.5
2018-Jun-18 15:30N 30°07' W 093°20'2 4.1
2018-Jun-18 15:01N 30°09' W 093°20'2 3.4
2018-Jun-18 14:30N 30°10' W 093°19'1 1.6
2018-Jun-18 14:00N 30°11' W 093°19'0 0.1
2018-Jun-18 13:29N 30°11' W 093°19'0 0.1
2018-Jun-18 13:00N 30°11' W 093°19'0 0.0
2018-Jun-18 12:30N 30°11' W 093°19'0 0.0
2018-Jun-18 12:01N 30°11' W 093°19'0 0.0
2018-Jun-18 11:30N 30°11' W 093°19'0 0.0
2018-Jun-18 11:01N 30°11' W 093°19'0 0.0
2018-Jun-18 10:30N 30°11' W 093°19'0 0.0
2018-Jun-18 10:00N 30°11' W 093°19'0 0.0
2018-Jun-18 09:30N 30°11' W 093°19'0 0.0
2018-Jun-18 09:01N 30°11' W 093°19'0 0.0
2018-Jun-18 08:28N 30°11' W 093°19'0 0.0
2018-Jun-18 08:00N 30°11' W 093°19'0 0.0
2018-Jun-18 07:30N 30°11' W 093°19'0 0.0
2018-Jun-18 07:00N 30°11' W 093°19'0 0.0
2018-Jun-18 06:31N 30°11' W 093°19'0 0.0
2018-Jun-18 06:01N 30°11' W 093°19'0 0.0
2018-Jun-18 05:30N 30°11' W 093°19'0 0.0
2018-Jun-18 05:00N 30°11' W 093°19'0 0.0
2018-Jun-18 04:26N 30°11' W 093°19'0 0.0
2018-Jun-18 03:57N 30°11' W 093°19'0 0.0
2018-Jun-18 03:29N 30°11' W 093°19'0 0.0
2018-Jun-18 03:00N 30°11' W 093°19'0 0.0
2018-Jun-18 02:30N 30°11' W 093°19'0 0.0
2018-Jun-18 01:56N 30°11' W 093°19'0 0.0
2018-Jun-18 01:30N 30°11' W 093°19'0 0.0
2018-Jun-18 01:00N 30°11' W 093°19'0 0.0
2018-Jun-18 00:27N 30°11' W 093°19'0 0.0
2018-Jun-18 00:00N 30°11' W 093°19'0 0.0
2018-Jun-17 23:30N 30°11' W 093°19'0 0.0
2018-Jun-17 23:00N 30°11' W 093°19'0 0.0
2018-Jun-17 22:29N 30°11' W 093°19'0 0.0
2018-Jun-17 21:56N 30°11' W 093°19'0 0.0
2018-Jun-17 21:30N 30°11' W 093°19'0 0.0
2018-Jun-17 21:00N 30°11' W 093°19'0 0.0
2018-Jun-17 20:30N 30°11' W 093°19'0 0.0
2018-Jun-17 19:59N 30°11' W 093°19'0 0.0
2018-Jun-17 19:30N 30°11' W 093°19'0 0.0
2018-Jun-17 18:59N 30°11' W 093°19'0 0.0
2018-Jun-17 18:29N 30°11' W 093°19'0 0.0
2018-Jun-17 17:59N 30°11' W 093°19'0 0.0
2018-Jun-17 17:29N 30°11' W 093°19'0 0.0
2018-Jun-17 16:59N 30°11' W 093°19'0 0.0
2018-Jun-17 16:29N 30°11' W 093°19'0 0.0
2018-Jun-17 16:00N 30°11' W 093°19'0 0.7
2018-Jun-17 15:30N 30°11' W 093°19'2 3.3
2018-Jun-17 15:00N 30°09' W 093°20'2 4.2
2018-Jun-17 14:31N 30°07' W 093°20'2 4.0
2018-Jun-17 14:00N 30°05' W 093°20'0 0.0
2018-Jun-17 13:29N 30°05' W 093°20'0 0.0
2018-Jun-17 12:59N 30°05' W 093°20'0 0.0
2018-Jun-17 12:29N 30°05' W 093°20'0 0.0
2018-Jun-17 11:59N 30°05' W 093°20'0 0.0
2018-Jun-17 11:29N 30°05' W 093°20'0 0.0
2018-Jun-17 10:59N 30°05' W 093°20'0 0.0
2018-Jun-17 10:29N 30°05' W 093°20'0 0.0
2018-Jun-17 09:59N 30°05' W 093°20'0 0.0
2018-Jun-17 09:29N 30°05' W 093°20'0 0.0
2018-Jun-17 08:59N 30°05' W 093°20'0 0.0
2018-Jun-17 08:29N 30°05' W 093°20'0 0.0
2018-Jun-17 07:59N 30°05' W 093°20'0 0.0
2018-Jun-17 07:29N 30°05' W 093°20'0 0.3
2018-Jun-17 07:00N 30°05' W 093°20'1 2.1
2018-Jun-17 06:28N 30°06' W 093°19'1 1.5
2018-Jun-17 06:01N 30°06' W 093°19'1 1.3
2018-Jun-17 05:30N 30°05' W 093°20'0 0.3
2018-Jun-17 04:59N 30°05' W 093°20'0 0.0
2018-Jun-17 04:29N 30°05' W 093°20'0 0.0
2018-Jun-17 03:59N 30°05' W 093°20'0 0.0
2018-Jun-17 03:29N 30°05' W 093°20'0 0.0
2018-Jun-17 02:59N 30°05' W 093°20'0 0.0
2018-Jun-17 02:29N 30°05' W 093°20'0 0.0
2018-Jun-17 01:59N 30°05' W 093°20'0 0.0
2018-Jun-17 01:29N 30°05' W 093°20'0 0.0
2018-Jun-17 00:59N 30°05' W 093°20'0 0.7
2018-Jun-17 00:30N 30°05' W 093°20'0 0.0
2018-Jun-17 00:00N 30°05' W 093°20'0 0.7
2018-Jun-16 23:29N 30°05' W 093°20'0 0.0
2018-Jun-16 22:59N 30°05' W 093°20'0 0.0
2018-Jun-16 22:29N 30°05' W 093°20'0 0.0
2018-Jun-16 21:59N 30°05' W 093°20'0 0.0
2018-Jun-16 21:29N 30°05' W 093°20'0 0.0
2018-Jun-16 20:59N 30°05' W 093°20'0 0.0
2018-Jun-16 20:29N 30°05' W 093°20'0 0.0
2018-Jun-16 19:59N 30°05' W 093°20'0 0.0
2018-Jun-16 19:29N 30°05' W 093°20'0 0.3
2018-Jun-16 19:00N 30°05' W 093°20'0 0.6
2018-Jun-16 18:30N 30°05' W 093°20'0 0.0
2018-Jun-16 18:00N 30°05' W 093°20'0 0.5
2018-Jun-16 17:30N 30°05' W 093°20'0 0.4
2018-Jun-16 16:59N 30°05' W 093°20'0 0.0
2018-Jun-16 16:30N 30°05' W 093°20'0 0.0
2018-Jun-16 15:54N 30°05' W 093°20'0 0.0
2018-Jun-16 15:29N 30°05' W 093°20'0 0.0
2018-Jun-16 15:00N 30°05' W 093°20'0 0.0
2018-Jun-16 14:30N 30°05' W 093°20'0 0.0
2018-Jun-16 14:00N 30°05' W 093°20'0 0.0
2018-Jun-16 13:30N 30°05' W 093°20'1 1.1
2018-Jun-16 13:00N 30°06' W 093°19'1 1.8
2018-Jun-16 12:30N 30°06' W 093°18'0 0.0
2018-Jun-16 12:00N 30°06' W 093°18'1 1.6
2018-Jun-16 11:30N 30°05' W 093°18'1 1.8
2018-Jun-16 11:00N 30°05' W 093°17'2 3.7
2018-Jun-16 10:30N 30°03' W 093°16'2 3.7
2018-Jun-16 10:00N 30°02' W 093°14'0 0.0
2018-Jun-16 09:30N 30°02' W 093°14'0 0.0
2018-Jun-16 09:00N 30°02' W 093°14'0 0.0
2018-Jun-16 08:30N 30°02' W 093°14'0 0.0
2018-Jun-16 08:00N 30°02' W 093°14'0 0.0
2018-Jun-16 07:29N 30°02' W 093°14'0 0.0
2018-Jun-16 06:59N 30°02' W 093°14'0 0.0
2018-Jun-16 06:29N 30°02' W 093°14'0 0.0
2018-Jun-16 06:00N 30°02' W 093°14'0 0.0
2018-Jun-16 05:30N 30°02' W 093°14'0 0.0
2018-Jun-16 05:00N 30°02' W 093°14'0 0.0
2018-Jun-16 04:30N 30°02' W 093°14'0 0.8
2018-Jun-16 04:00N 30°02' W 093°14'0 0.0
2018-Jun-16 03:30N 30°01' W 093°14'0 0.0
2018-Jun-16 03:00N 30°01' W 093°14'0 0.0
2018-Jun-16 02:30N 30°02' W 093°14'0 0.1
2018-Jun-16 02:00N 30°01' W 093°14'1 2.1
2018-Jun-16 01:30N 30°00' W 093°14'2 4.8
2018-Jun-16 01:00N 29°59' W 093°12'3 5.2
2018-Jun-16 00:30N 29°57' W 093°10'3 5.1
2018-Jun-16 00:00N 29°56' W 093°07'2 4.9
2018-Jun-15 23:30N 29°56' W 093°04'2 1.6
2018-Jun-15 22:25N 29°56' W 093°02'0 0.0
2018-Jun-15 21:58N 29°56' W 093°02'0 0.0
2018-Jun-15 21:30N 29°56' W 093°02'0 0.0
2018-Jun-15 20:58N 29°56' W 093°02'0 0.0
2018-Jun-15 20:29N 29°56' W 093°02'0 0.0
2018-Jun-15 19:44N 29°56' W 093°02'0 0.0
2018-Jun-15 19:30N 29°56' W 093°02'0 0.0
2018-Jun-15 18:59N 29°56' W 093°02'0 0.0
2018-Jun-15 17:10N 29°56' W 093°02'0 0.0
2018-Jun-15 15:43N 29°56' W 093°02'0 0.0
2018-Jun-15 15:20N 29°56' W 093°02'0 0.0
2018-Jun-15 14:52N 29°56' W 093°02'0 0.0
2018-Jun-15 14:21N 29°56' W 093°02'0 0.0
2018-Jun-15 13:36N 29°56' W 093°02'0 0.0
2018-Jun-15 13:27N 29°56' W 093°02'0 0.0
2018-Jun-15 13:00N 29°56' W 093°02'0 0.0
2018-Jun-15 12:30N 29°56' W 093°02'0 0.0
2018-Jun-15 11:19N 29°56' W 093°02'0 0.0
2018-Jun-15 09:23N 29°56' W 093°02'0 0.0
2018-Jun-15 08:54N 29°56' W 093°02'0 0.0
2018-Jun-15 08:29N 29°56' W 093°02'0 0.0
2018-Jun-15 08:00N 29°56' W 093°02'0 0.0
2018-Jun-15 07:29N 29°56' W 093°02'0 0.1
2018-Jun-15 07:00N 29°56' W 093°02'0 0.0
2018-Jun-15 06:30N 29°56' W 093°02'0 0.0
2018-Jun-15 06:00N 29°56' W 093°02'0 0.0
2018-Jun-15 05:30N 29°56' W 093°02'0 0.1
2018-Jun-15 05:00N 29°56' W 093°02'0 0.0
2018-Jun-15 04:30N 29°56' W 093°02'0 0.0
2018-Jun-15 04:00N 29°56' W 093°02'0 0.0
2018-Jun-15 03:30N 29°56' W 093°02'0 0.0
2018-Jun-15 03:00N 29°56' W 093°02'0 0.0
2018-Jun-15 02:30N 29°56' W 093°02'0 0.0
2018-Jun-15 02:00N 29°56' W 093°02'0 0.0
2018-Jun-15 01:30N 29°56' W 093°02'0 0.0
2018-Jun-15 01:00N 29°56' W 093°02'0 0.0
2018-Jun-15 00:29N 29°56' W 093°02'0 0.0
2018-Jun-14 23:25N 29°56' W 093°02'0 0.0
2018-Jun-14 22:57N 29°56' W 093°02'32 4.5
2018-Jun-14 15:51N 29°53' W 092°26'3 5.4
2018-Jun-14 15:20N 29°52' W 092°23'2 5.3
2018-Jun-14 15:00N 29°51' W 092°21'3 5.6
2018-Jun-14 14:30N 29°50' W 092°18'3 5.4
2018-Jun-14 14:00N 29°49' W 092°16'3 5.8
2018-Jun-14 13:29N 29°47' W 092°13'1 2.4
2018-Jun-14 13:00N 29°47' W 092°11'3 5.8
2018-Jun-14 12:30N 29°47' W 092°08'3 6.2
2018-Jun-14 12:00N 29°48' W 092°05'3 6.4
2018-Jun-14 11:30N 29°49' W 092°01'3 6.5
2018-Jun-14 11:00N 29°50' W 091°58'3 6.4
2018-Jun-14 10:30N 29°51' W 091°54'  
2018-Jun-11 13:48N 31°51' W 091°18'5 8.5
2018-Jun-11 13:11N 31°54' W 091°12'6 7.4
2018-Jun-11 12:20N 31°59' W 091°08'3 8.5
2018-Jun-11 12:00N 32°00' W 091°05'5 8.0
2018-Jun-11 11:26N 32°05' W 091°04'3 7.6
2018-Jun-11 11:00N 32°08' W 091°06'4 7.9
2018-Jun-11 10:30N 32°07' W 091°02'4 8.4
2018-Jun-11 10:00N 32°11' W 090°60'4 8.9
2018-Jun-11 09:30N 32°15' W 090°58'4 8.9
2018-Jun-11 09:00N 32°18' W 090°55'3 5.9
2018-Jun-11 08:30N 32°21' W 090°57'3 6.7
2018-Jun-11 08:00N 32°23' W 091°00'4 7.1
2018-Jun-11 07:30N 32°26' W 091°02'4 8.9
2018-Jun-11 07:01N 32°28' W 091°06'4 8.4
2018-Jun-11 06:30N 32°32' W 091°06'4 8.4
2018-Jun-11 05:59N 32°36' W 091°09'  

Dump ship's entire track history